Klamath Falls, OR

7:48 AM PDT on August 20, 2014 (GMT -0700)
Klamath Falls City Schools | Change Station
CLOSE
Current Station
Personal Weather Station
Location: Klamath Falls, OR
Elevation: 4104 ft
Nearby Weather Stations

Elev 4104 ft 42.22 °N, 121.75 °W | Updated 2 seconds ago

Clear
Clear
58.0 °F
Feels Like 58.0 °F
N
0.0
Wind Variable Wind from ENE
Gusts 0.0 mph

Today
High -- | Low -- °F
--% Chance of Precip.
Yesterday
High -- | Low -- °F
Precip. -- in
6:19 AM 8:00 PM
Waning Crescent, 21% visible
Pressure 29.89 in
Visibility 10.0 miles
Clouds Clear
Dew Point 58 °F
Humidity 100%
Rainfall 0.00 in
Snow Depth 0 in
UV 0 out of 12
Pollen 5.30 out of 12
Air Quality Not available.
Flu Activity Not available.
METAR KLMT 201353Z AUTO 16003KT 10SM CLR 10/08 A2999 RMK AO2 SLP120 T01000083

More Conditions Fewer Conditions

Pressure 29.89 in
Visibility 10.0 miles
Clouds Clear
Dew Point 58 °F
Humidity 100%
Rainfall 0.00 in
Snow Depth 0 in
UV 0 out of 12
Pollen 5.30 out of 12
Air Quality Not available.
Flu Activity Not available.
METAR KLMT 201353Z AUTO 16003KT 10SM CLR 10/08 A2999 RMK AO2 SLP120 T01000083

More Conditions Fewer Conditions

10-Day Weather Forecast

Almanac

Astronomy

Aug. 20, 2014 Rise Set
Actual Time 6:19 AM PDT 8:00 PM PDT
Civil Twilight 5:50 AM PDT 8:29 PM PDT
Nautical Twilight 5:14 AM PDT 9:05 PM PDT
Astronomical Twilight 4:35 AM PDT 9:44 PM PDT
Moon 2:02 AM PDT 4:51 PM PDT
Length of Visible Light 14h 39m
Length of Day
13h 40m
Tomorrow will be 2m 36s shorter.
Waning Crescent, 21% of the Moon is Illuminated
Today
Waning Crescent
Aug 25
New
Sep 2
First Quarter
Sep 8
Full
Sep 15
Last Quarter

Today's Extremes

State Highs State Lows

Community

WunderPhotos

Upload Photos

1,745,658 photos uploaded!

Nearby

Snow Depth

Station Depth Elevation
Strawberry 0 in 5760 ft
Fourmile Lake 1 in 6000 ft
Billie Creek Divide 0 in 5300 ft
Cold Springs Camp 0 in 6100 ft
Fish Lake 0 in 4665 ft

Earthquake Activity

City Distance Mag. Time & Date
No recent earthquake activity has been reported nearby.
Minimum magnitude displayed is 2.5.

Coastal Water Temperatures

Place Temperature
No Stations Reporting

Nearby Weather Stations